Terminal Aerodrome Forecast
Issued by NWS Charleston, WV

Current Version | Previous Version | Graphics & Text | Print | Product List | Glossary On
Versions: 1 2 3 4 5 6 7 8 9 10 11 12 13 14 15 16 17 18 19 20 21 22 23 24 25 26
000
FTUS41 KRLX 301100
TAFCRW
TAF
KCRW 301122Z 3012/3112 00000KT 1/2SM FG BKN001
     FM301300 00000KT 3SM BR SCT006
     FM301430 25004KT P6SM SCT090
     FM302300 28004KT P6SM BKN050
     FM310200 00000KT P6SM SCT060
     FM310600 00000KT 3SM BR FEW060=

USA.gov is the U.S. government's official web portal to all federal, state and local government web resources and services.